HIJ weather

Hiroshima Airport
Hiroshima, Hiroshima Prefecture, Japan

Public forecast

Using degrees Celsius for public forecast. Weather courtesy of forecast.io.

METAR (pilot weather report)

Retrieved 2019/03/25 23:00 UTC (38 minutes ago):

RJOA 252300Z 31004KT 260V030 9999 FEW015 SCT/// 08/01 Q1015

TAF (pilot weather forecast)

Retrieved 2019/03/25 18:29 UTC (5 hours ago):

TAF RJOA 251705Z 2518/2700 31005KT 9999 FEW020